• Join FlightAware (Why Join?)
  • Login
  • US Flag 
09:00PM EDT


 

Airport Tracker/Info


-or-


 

Live Flight TrackerFlight Track Log ✈ UAL5881 ✈ 25-Apr-2013 ✈ KORD - KIND

Flight Track Log - Related Links

Times and Time Zones

All times are in EDT time to prevent confusion due to time zone crossing. See the UAL5881 flight status page for this flight to view local times or setup timezone preferences in your user account.

Time Position Orientation Groundspeed Altitude Reporting Facility
EDT Latitude Longitude Course Direction KTS MPH feet Rate Location/Type
08:09AM 41.9500 -87.9000 180° South 165 190 1,800  Level Chicago TRACON
08:10AM 41.8833 -87.9000 180° South 222 255 4,000 2,040 Climbing Chicago TRACON
08:12AM 41.7442 -87.8144 155° Southeast 272 313 8,500 2,040 Climbing Chicago Center
08:13AM 41.6758 -87.7617 150° Southeast 281 323 10,700 1,980 Climbing Chicago Center
08:14AM 41.6014 -87.7056 151° Southeast 305 351 12,600 1,260 Climbing Chicago Center
08:15AM 41.5133 -87.6708 164° South 330 380 13,400 1,020 Climbing Chicago Center
08:16AM 41.3944 -87.6314 166° South 362 417 14,800 1,320 Climbing Chicago Center
08:17AM 41.2928 -87.6000 167° South 372 428 16,200 1,320 Climbing Chicago Center
08:18AM 41.1875 -87.5661 166° South 384 442 17,600 1,260 Climbing Chicago Center
08:20AM 41.0806 -87.5319 166° South 392 451 18,900 660 Climbing Chicago Center
08:21AM 40.9711 -87.4956 166° South 400 460 19,000  Climbing Chicago Center
08:22AM 40.8497 -87.4581 167° South 443 510 19,000  Level Chicago Center
08:23AM 40.7058 -87.4150 167° South 441 507 19,000  Level Chicago Center
08:24AM 40.5881 -87.3778 167° South 436 502 19,000  Level Chicago Center
08:25AM 40.4703 -87.3378 166° South 438 504 19,000 -300 Level Chicago Center
08:26AM 40.3800 -87.2172 134° Southeast 461 531 18,500 -1,020 Descending Chicago Center
08:27AM 40.2986 -87.0883 130° Southeast 457 526 16,900 -1,680 Descending Chicago Center
08:28AM 40.2244 -86.9711 130° Southeast 418 481 15,100 -1,860 Descending Chicago Center
08:29AM 40.1550 -86.8594 129° Southeast 397 457 13,100 -1,260 Descending Chicago Center
08:30AM 40.0875 -86.7628 132° Southeast 364 419 12,700 -1,200 Descending Indianapolis Center
08:31AM 40.0275 -86.6756 132° Southeast 332 382 10,800 -1,800 Descending Indianapolis Center
08:32AM 39.9692 -86.5917 132° Southeast 316 364 9,100 -1,620 Descending Indianapolis Center
08:33AM 39.9150 -86.5125 132° Southeast 298 343 7,500 -1,080 Descending Indianapolis Center
08:34AM 39.8608 -86.4342 132° Southeast 291 335 7,000 -360 Descending Indianapolis Center
08:35AM 39.8167 -86.3333 120° Southeast 294 338 6,800 -600 Descending Indianapolis TRACON
08:36AM 39.8667 -86.2500 52° Northeast 283 326 5,800 -1,020 Descending Indianapolis TRACON
08:37AM 39.9167 -86.1667 52° Northeast 276 318 4,800 -900 Descending Indianapolis TRACON
08:38AM 39.9108 -86.0828 95° East 265 305 4,000 -420 Descending Indianapolis Center
08:39AM 39.8686 -86.0875 185° South 209 241 4,000  Level Indianapolis Center
08:40AM 39.8392 -86.1256 225° Southwest 165 190 4,000 -360 Level Indianapolis Center
08:41AM 39.8167 -86.1667 235° Southwest 153 176 3,400 -720 Descending Indianapolis TRACON
08:42AM 39.7833 -86.2000 218° Southwest 149 171 2,600 -780 Descending Indianapolis TRACON
08:43AM 39.7500 -86.2333 218° Southwest 121 139 1,900 -720 Descending Indianapolis TRACON